Time;durP1;ratioP1;P1;durP2;ratioP2;P2;SDS_P1;SDS_P2;PMS_P1;PMS_P2;Temp;Humidity;BMP_temperature;BMP_pressure;BME280_temperature;BME280_humidity;BME280_pressure;Samples;Min_cycle;Max_cycle;Signal;HPM_P1;HPM_P2
2022/08/08 00:01:48;;;;;;;10.27;5.72;;;;;;;15.05;79.19;102367.84;5068797;28;20111;-70
2022/08/08 00:04:44;;;;;;;11.77;6.60;;;;;;;15.09;78.67;102375.34;5067958;28;20032;-70
2022/08/08 00:07:42;;;;;;;24.20;6.30;;;;;;;15.18;77.77;102377.91;5068618;28;20033;-70
2022/08/08 00:10:26;;;;;;;12.75;6.10;;;;;;;15.22;78.92;102371.09;5034527;28;20032;-70
2022/08/08 00:12:51;;;;;;;11.07;5.68;;;;;;;15.24;78.57;102367.22;5068793;28;20090;-70
2022/08/08 00:15:27;;;;;;;11.55;6.20;;;;;;;15.25;78.14;102371.59;5068639;28;20020;-70
2022/08/08 00:18:27;;;;;;;10.18;6.15;;;;;;;15.27;78.94;102374.06;5067161;28;21014;-70
2022/08/08 00:20:57;;;;;;;14.02;6.20;;;;;;;15.17;79.45;102366.31;5067273;28;20024;-70
2022/08/08 00:23:33;;;;;;;14.77;7.30;;;;;;;15.15;79.86;102372.91;5068717;28;20032;-71
2022/08/08 00:26:02;;;;;;;12.43;6.55;;;;;;;15.07;80.36;102381.91;5068174;28;20029;-70
2022/08/08 00:28:37;;;;;;;14.80;7.38;;;;;;;15.06;80.06;102362.28;5068213;28;20052;-70
2022/08/08 00:31:26;;;;;;;11.85;6.90;;;;;;;15.12;80.10;102374.94;5068649;28;20110;-70
2022/08/08 00:36:59;;;;;;;10.10;5.47;;;;;;;15.09;80.91;102382.53;5068329;28;20522;-70
2022/08/08 00:39:37;;;;;;;15.35;6.85;;;;;;;15.00;81.02;102381.00;5070619;28;20032;-70
2022/08/08 00:42:32;;;;;;;12.35;6.95;;;;;;;14.95;80.95;102378.88;5072050;28;20055;-70
2022/08/08 00:45:28;;;;;;;12.73;6.22;;;;;;;14.87;81.66;102384.34;5071500;28;20028;-70
2022/08/08 00:48:21;;;;;;;13.95;6.57;;;;;;;14.79;80.74;102381.78;5072061;28;20495;-70
2022/08/08 00:50:52;;;;;;;13.23;6.32;;;;;;;14.69;81.40;102372.13;5071982;28;20074;-70
2022/08/08 00:53:55;;;;;;;10.13;6.18;;;;;;;14.67;81.06;102378.72;5071938;28;20024;-70
2022/08/08 00:57:08;;;;;;;11.32;6.00;;;;;;;14.64;80.20;102376.41;5071745;28;20031;-70
2022/08/08 00:59:55;;;;;;;12.27;6.68;;;;;;;14.51;81.37;102371.66;5009365;28;20889;-68
2022/08/08 01:02:45;;;;;;;10.75;5.50;;;;;;;14.43;81.69;102371.75;5071794;28;20034;-68
2022/08/08 01:05:31;;;;;;;13.02;6.85;;;;;;;14.35;82.48;102369.16;5071283;28;20055;-68
2022/08/08 01:08:05;;;;;;;10.57;6.50;;;;;;;14.30;82.96;102367.00;5071487;28;20032;-68
2022/08/08 01:10:48;;;;;;;13.27;6.00;;;;;;;14.25;82.73;102362.22;5071444;28;20471;-69
2022/08/08 01:13:53;;;;;;;10.85;5.93;;;;;;;14.18;83.40;102366.66;5071442;28;20081;-69
2022/08/08 01:16:44;;;;;;;14.38;7.25;;;;;;;14.09;83.99;102374.94;5071507;28;20095;-69
2022/08/08 01:19:31;;;;;;;19.95;5.88;;;;;;;14.02;84.22;102370.31;5070539;28;20032;-68
2022/08/08 01:22:29;;;;;;;13.70;7.43;;;;;;;13.98;84.32;102360.97;5071268;28;20033;-68
2022/08/08 01:25:15;;;;;;;15.43;7.38;;;;;;;13.99;84.55;102365.31;5071340;28;20093;-69
2022/08/08 01:28:11;;;;;;;11.88;5.88;;;;;;;13.98;83.77;102368.19;5071545;28;20058;-68
2022/08/08 01:31:12;;;;;;;10.32;5.90;;;;;;;13.95;84.01;102361.34;5071187;28;20459;-68
2022/08/08 01:34:25;;;;;;;10.32;5.22;;;;;;;13.86;84.78;102373.16;5044488;28;20102;-70
2022/08/08 01:37:20;;;;;;;11.15;5.82;;;;;;;13.70;85.79;102370.59;5070957;28;20496;-69
2022/08/08 01:40:07;;;;;;;10.02;6.40;;;;;;;13.58;85.21;102360.31;5039202;28;20044;-69
2022/08/08 01:43:00;;;;;;;14.38;6.45;;;;;;;13.53;86.09;102359.19;5071058;28;20037;-69
2022/08/08 01:45:57;;;;;;;13.85;7.80;;;;;;;13.47;86.77;102359.91;5070853;28;20035;-69
2022/08/08 01:48:55;;;;;;;14.38;7.40;;;;;;;13.40;87.08;102358.94;5070897;28;20030;-69
2022/08/08 01:51:47;;;;;;;12.43;7.15;;;;;;;13.30;87.86;102359.16;5070788;28;20482;-69
2022/08/08 01:54:21;;;;;;;10.65;7.03;;;;;;;13.27;88.34;102360.34;5070858;28;20032;-69
2022/08/08 01:57:16;;;;;;;14.68;6.32;;;;;;;13.25;88.43;102361.50;5070622;28;20111;-69
2022/08/08 01:59:50;;;;;;;13.02;6.82;;;;;;;13.30;88.52;102359.16;5070505;28;20039;-69
2022/08/08 02:02:53;;;;;;;14.75;8.02;;;;;;;13.38;88.08;102367.97;5070631;28;20120;-69
2022/08/08 02:05:37;;;;;;;16.25;8.07;;;;;;;13.45;87.86;102368.09;5070404;28;20107;-69
2022/08/08 02:08:20;;;;;;;12.48;7.38;;;;;;;13.47;88.67;102367.94;5070464;28;20028;-69
2022/08/08 02:11:22;;;;;;;13.25;7.28;;;;;;;13.49;87.90;102368.56;5070547;28;20058;-69
2022/08/08 02:14:16;;;;;;;15.93;9.65;;;;;;;13.54;88.02;102369.69;5070332;28;20043;-69
2022/08/08 02:16:55;;;;;;;14.38;8.10;;;;;;;13.53;88.19;102362.69;5069957;28;20036;-69
2022/08/08 02:19:57;;;;;;;13.60;7.70;;;;;;;13.49;88.56;102364.06;5069970;28;20387;-69
2022/08/08 02:22:50;;;;;;;14.77;7.78;;;;;;;13.48;88.35;102365.06;5046245;28;20064;-69
2022/08/08 02:25:39;;;;;;;17.48;8.23;;;;;;;13.42;88.31;102365.78;5068774;28;20462;-69
2022/08/08 02:28:12;;;;;;;19.27;9.30;;;;;;;13.36;88.71;102364.66;5069513;28;20485;-69
2022/08/08 02:31:01;;;;;;;18.15;9.20;;;;;;;13.31;89.18;102360.84;5069841;28;20062;-69
2022/08/08 02:33:41;;;;;;;13.88;7.28;;;;;;;13.32;89.95;102363.34;5069762;28;20059;-69
2022/08/08 02:36:18;;;;;;;16.17;9.25;;;;;;;13.38;89.45;102367.16;5069714;28;20037;-70
2022/08/08 02:38:53;;;;;;;17.67;8.73;;;;;;;13.42;89.41;102360.44;5069725;28;20476;-69
2022/08/08 02:41:40;;;;;;;13.48;8.02;;;;;;;13.40;89.22;102370.50;5069478;28;20039;-69
2022/08/08 02:44:15;;;;;;;15.05;8.07;;;;;;;13.33;89.45;102362.31;5069742;28;20047;-69
2022/08/08 02:46:59;;;;;;;14.35;8.20;;;;;;;13.28;89.09;102359.34;5069677;28;20384;-69
2022/08/08 02:49:27;;;;;;;15.60;8.55;;;;;;;13.24;88.41;102363.34;5069695;28;20024;-69
2022/08/08 02:52:13;;;;;;;15.55;8.52;;;;;;;13.20;87.52;102362.03;5069438;28;20161;-69
2022/08/08 02:54:56;;;;;;;14.13;7.20;;;;;;;13.19;87.73;102365.72;5069138;28;20032;-69
2022/08/08 02:57:53;;;;;;;13.30;7.35;;;;;;;13.18;88.17;102361.41;5069471;28;20033;-69
2022/08/08 03:00:37;;;;;;;14.88;7.72;;;;;;;13.14;89.13;102366.25;5041211;28;20041;-65
2022/08/08 03:03:21;;;;;;;14.95;7.60;;;;;;;13.10;89.85;102364.94;5069560;28;20024;-65
2022/08/08 03:06:24;;;;;;;17.42;8.43;;;;;;;13.07;90.20;102365.31;5069476;28;20086;-65
2022/08/08 03:09:24;;;;;;;20.48;9.13;;;;;;;13.02;90.21;102361.47;5069482;28;20016;-65
2022/08/08 03:12:27;;;;;;;15.30;8.00;;;;;;;12.94;90.39;102370.38;5069437;28;20039;-65
2022/08/08 03:15:04;;;;;;;15.55;8.57;;;;;;;12.86;91.47;102365.06;5069215;28;20039;-65
2022/08/08 03:18:08;;;;;;;18.90;8.15;;;;;;;12.83;91.14;102368.09;5069236;28;20529;-65
2022/08/08 03:20:46;;;;;;;15.93;8.35;;;;;;;12.84;91.99;102367.09;5069293;28;20032;-65
2022/08/08 03:23:12;;;;;;;14.52;8.23;;;;;;;12.90;91.72;102371.75;5068624;28;20105;-65
2022/08/08 03:25:38;;;;;;;14.63;8.10;;;;;;;12.86;91.25;102370.41;5069355;28;20056;-65
2022/08/08 03:28:09;;;;;;;13.75;8.85;;;;;;;12.78;90.93;102373.13;5069293;28;20020;-65
2022/08/08 03:30:34;;;;;;;14.68;7.53;;;;;;;12.71;90.27;102367.66;5069236;28;20510;-65
2022/08/08 03:33:18;;;;;;;14.80;8.32;;;;;;;12.66;90.84;102367.34;5069195;28;20036;-65
2022/08/08 03:35:47;;;;;;;15.38;8.70;;;;;;;12.76;91.96;102380.50;5069094;28;20071;-65
2022/08/08 03:38:13;;;;;;;15.68;8.65;;;;;;;12.78;92.26;102387.34;5069038;28;20157;-65
2022/08/08 03:40:38;;;;;;;15.05;8.55;;;;;;;12.80;92.43;102373.81;5068989;28;20037;-65
2022/08/08 03:43:09;;;;;;;16.50;8.13;;;;;;;12.86;92.25;102390.03;5068727;28;20047;-65
2022/08/08 03:45:35;;;;;;;14.90;8.38;;;;;;;12.85;92.42;102379.47;5068685;28;20054;-65
2022/08/08 03:48:08;;;;;;;16.42;8.95;;;;;;;12.86;92.77;102387.34;5068710;28;20031;-65
2022/08/08 03:50:36;;;;;;;18.05;9.10;;;;;;;12.89;92.25;102388.81;5069030;28;20039;-65
2022/08/08 03:53:07;;;;;;;16.13;8.70;;;;;;;12.93;92.49;102395.50;5068994;28;20028;-65
2022/08/08 03:55:48;;;;;;;15.77;8.93;;;;;;;12.96;92.93;102399.66;5068974;28;20434;-65
2022/08/08 03:58:24;;;;;;;15.10;8.30;;;;;;;12.97;92.43;102391.47;5069207;28;20025;-65
2022/08/08 04:00:55;;;;;;;17.80;8.32;;;;;;;12.97;92.82;102388.78;5068763;28;20036;-65
2022/08/08 04:03:21;;;;;;;15.85;7.43;;;;;;;12.94;92.95;102397.16;5068945;28;20158;-70
2022/08/08 04:05:47;;;;;;;15.80;9.50;;;;;;;12.91;93.11;102397.50;5068758;28;20048;-69
2022/08/08 04:08:21;;;;;;;24.23;10.32;;;;;;;12.90;93.50;102399.34;5068871;28;20059;-69
2022/08/08 04:10:48;;;;;;;15.52;9.30;;;;;;;12.91;92.73;102401.00;5068628;28;20510;-69
2022/08/08 04:13:13;;;;;;;16.38;9.25;;;;;;;12.88;92.03;102401.38;5069505;28;20098;-69
2022/08/08 04:15:39;;;;;;;15.45;9.10;;;;;;;12.87;92.46;102391.69;5072559;28;20038;-69
2022/08/08 04:18:05;;;;;;;16.40;9.30;;;;;;;12.84;93.01;102388.53;5072503;28;20040;-69
2022/08/08 04:20:31;;;;;;;13.55;8.35;;;;;;;12.86;93.55;102405.22;5072282;28;20036;-70
2022/08/08 04:22:56;;;;;;;18.25;7.45;;;;;;;12.87;93.70;102404.25;5072235;28;20139;-69
2022/08/08 04:25:22;;;;;;;15.40;8.38;;;;;;;12.84;93.38;102394.72;5071798;28;20036;-69
2022/08/08 04:27:47;;;;;;;19.50;9.23;;;;;;;12.82;93.81;102398.56;5072443;28;20614;-69
2022/08/08 04:30:12;;;;;;;17.90;9.77;;;;;;;12.77;94.09;102392.91;5072278;28;20517;-69
2022/08/08 04:32:38;;;;;;;16.40;8.13;;;;;;;12.76;92.81;102401.91;5072038;28;20077;-69
2022/08/08 04:35:04;;;;;;;24.63;8.63;;;;;;;12.76;92.57;102405.44;5071979;28;20210;-69
2022/08/08 04:37:29;;;;;;;16.40;8.27;;;;;;;12.76;93.09;102399.25;5072055;28;20036;-70
2022/08/08 04:39:55;;;;;;;14.35;8.32;;;;;;;12.79;93.49;102401.59;5071896;28;20071;-69
2022/08/08 04:42:21;;;;;;;17.17;8.40;;;;;;;12.82;93.80;102412.78;5071821;28;20383;-69
2022/08/08 04:44:47;;;;;;;15.15;8.38;;;;;;;12.82;93.29;102418.13;5071807;28;20063;-69
2022/08/08 04:47:13;;;;;;;15.82;7.68;;;;;;;12.81;92.79;102419.16;5071349;28;20452;-69
2022/08/08 04:49:38;;;;;;;18.23;8.55;;;;;;;13.02;92.09;102426.59;5072126;28;20032;-70
2022/08/08 04:52:04;;;;;;;14.13;7.53;;;;;;;13.06;91.55;102435.13;5071975;28;20032;-69
2022/08/08 04:54:29;;;;;;;15.98;9.63;;;;;;;13.03;92.63;102444.34;5070591;28;20033;-69
2022/08/08 04:56:54;;;;;;;17.52;8.93;;;;;;;13.12;92.97;102445.13;5071866;28;20028;-69
2022/08/08 04:59:20;;;;;;;15.63;7.68;;;;;;;13.31;93.06;102446.59;5071689;28;20052;-69
2022/08/08 05:01:45;;;;;;;17.77;9.43;;;;;;;13.53;92.04;102439.59;5071616;28;20123;-65
2022/08/08 05:04:11;;;;;;;15.10;9.07;;;;;;;13.77;91.29;102438.59;5071241;28;20060;-65
2022/08/08 05:06:37;;;;;;;15.57;9.13;;;;;;;13.88;90.52;102448.88;5071421;28;20120;-65
2022/08/08 05:09:03;;;;;;;12.93;7.78;;;;;;;13.91;90.44;102442.34;5071267;28;20099;-65
2022/08/08 05:11:29;;;;;;;16.75;8.77;;;;;;;13.96;90.01;102450.69;5071486;28;20024;-65
2022/08/08 05:13:55;;;;;;;20.15;10.13;;;;;;;14.06;89.86;102445.91;5071252;28;20036;-65
2022/08/08 05:16:21;;;;;;;15.40;8.07;;;;;;;14.16;89.21;102456.41;5071412;28;20025;-65
2022/08/08 05:18:47;;;;;;;16.27;8.75;;;;;;;14.24;89.19;102448.28;5071430;28;20037;-65
2022/08/08 05:21:12;;;;;;;15.80;8.52;;;;;;;14.25;89.00;102448.09;5071370;28;20035;-65
2022/08/08 05:23:38;;;;;;;17.08;9.73;;;;;;;14.24;90.14;102457.16;5070831;28;20566;-65
2022/08/08 05:26:03;;;;;;;17.55;9.25;;;;;;;14.25;89.85;102453.47;5070803;28;20028;-65
2022/08/08 05:28:29;;;;;;;17.73;9.85;;;;;;;14.28;90.33;102454.09;5071168;28;20041;-65
2022/08/08 05:30:54;;;;;;;18.40;9.48;;;;;;;14.36;90.23;102452.19;5071123;28;20336;-65
2022/08/08 05:33:20;;;;;;;18.58;10.15;;;;;;;14.43;90.29;102457.66;5070728;28;20089;-65
2022/08/08 05:35:46;;;;;;;19.38;9.98;;;;;;;14.53;90.36;102452.06;5071179;28;20030;-67
2022/08/08 05:38:16;;;;;;;19.17;9.98;;;;;;;14.63;90.45;102444.56;5071132;28;20392;-67
2022/08/08 05:40:48;;;;;;;17.05;9.60;;;;;;;14.77;90.14;102451.78;5070605;28;20037;-67
2022/08/08 05:43:38;;;;;;;18.85;9.75;;;;;;;14.86;89.42;102449.84;5070826;28;20028;-67
2022/08/08 05:46:06;;;;;;;19.92;10.88;;;;;;;14.95;90.09;102464.00;5070697;28;20493;-68
2022/08/08 05:48:32;;;;;;;18.38;10.63;;;;;;;14.99;90.15;102460.78;5070029;28;20178;-67
2022/08/08 05:50:57;;;;;;;15.57;9.63;;;;;;;15.01;90.03;102455.19;5070824;28;20119;-67
2022/08/08 05:53:26;;;;;;;16.60;9.48;;;;;;;15.08;90.27;102465.03;5070657;28;20040;-68
2022/08/08 05:55:57;;;;;;;16.85;9.50;;;;;;;15.13;89.88;102461.78;5070855;28;20437;-67
2022/08/08 05:58:28;;;;;;;17.33;10.07;;;;;;;15.21;89.88;102471.59;5070395;28;20028;-67
2022/08/08 06:01:01;;;;;;;16.50;8.38;;;;;;;15.26;89.47;102463.81;5070542;28;20037;-67
2022/08/08 06:03:29;;;;;;;14.07;8.52;;;;;;;15.35;89.35;102468.03;5070289;28;20037;-69
2022/08/08 06:05:58;;;;;;;18.02;8.50;;;;;;;15.38;89.84;102466.81;5068948;28;20029;-67
2022/08/08 06:08:25;;;;;;;15.88;8.90;;;;;;;15.39;90.05;102474.72;5070384;28;20565;-67
2022/08/08 06:10:53;;;;;;;16.58;10.35;;;;;;;15.42;91.72;102465.44;5070423;28;20016;-67
2022/08/08 06:13:19;;;;;;;18.42;10.38;;;;;;;15.38;90.98;102456.94;5069137;28;20037;-68
2022/08/08 06:15:49;;;;;;;16.13;8.50;;;;;;;15.41;91.28;102471.84;5070245;28;20040;-68
2022/08/08 06:18:15;;;;;;;15.48;9.40;;;;;;;15.43;90.25;102467.09;5070052;28;20453;-69
2022/08/08 06:20:42;;;;;;;15.38;7.97;;;;;;;15.46;90.17;102467.56;5070163;28;20028;-68
2022/08/08 06:23:07;;;;;;;16.48;7.88;;;;;;;15.50;90.11;102471.53;5070003;28;20039;-67
2022/08/08 06:25:35;;;;;;;15.40;7.78;;;;;;;15.58;89.39;102473.28;5070168;28;20021;-67
2022/08/08 06:28:09;;;;;;;13.32;7.03;;;;;;;15.62;89.46;102476.44;5068134;28;20466;-67
2022/08/08 06:30:37;;;;;;;13.35;7.38;;;;;;;15.64;89.55;102477.91;5070003;28;20032;-67
2022/08/08 06:33:08;;;;;;;14.75;7.68;;;;;;;15.71;89.34;102473.44;5069766;28;20036;-67
2022/08/08 06:35:35;;;;;;;19.02;8.68;;;;;;;15.82;89.25;102487.41;5069056;28;20092;-66
2022/08/08 06:38:04;;;;;;;14.55;6.82;;;;;;;15.91;89.02;102481.72;5069772;28;20054;-67
2022/08/08 06:40:32;;;;;;;16.15;7.72;;;;;;;16.00;88.52;102477.88;5069708;28;20063;-68
2022/08/08 06:43:08;;;;;;;15.63;6.68;;;;;;;16.15;87.81;102490.44;5069639;28;20028;-67
2022/08/08 06:45:36;;;;;;;13.98;7.25;;;;;;;16.19;87.41;102479.09;5069574;28;20032;-67
2022/08/08 06:48:02;;;;;;;12.52;6.50;;;;;;;16.31;87.55;102487.47;5069737;28;20021;-67
2022/08/08 06:50:31;;;;;;;10.80;6.30;;;;;;;16.38;85.89;102485.66;5068755;28;20039;-67
2022/08/08 06:52:59;;;;;;;9.93;5.43;;;;;;;16.46;85.79;102489.25;5068372;28;20054;-67
2022/08/08 06:55:25;;;;;;;9.63;5.60;;;;;;;16.51;84.92;102484.09;5069493;28;20048;-67
2022/08/08 06:57:50;;;;;;;11.05;5.80;;;;;;;16.57;84.49;102489.53;5069070;28;20085;-67
2022/08/08 07:00:16;;;;;;;9.25;5.57;;;;;;;16.65;85.05;102500.16;5069041;28;20142;-67
2022/08/08 07:02:50;;;;;;;11.15;5.75;;;;;;;16.75;82.90;102491.72;5069503;28;20043;-67
2022/08/08 07:05:18;;;;;;;9.20;5.00;;;;;;;16.83;82.85;102488.91;5069499;28;20020;-67
2022/08/08 07:08:02;;;;;;;8.82;5.18;;;;;;;16.91;82.08;102498.69;5069368;28;20033;-67
2022/08/08 07:10:34;;;;;;;8.68;4.47;;;;;;;16.93;80.79;102495.81;5069296;28;20070;-67
2022/08/08 07:13:06;;;;;;;11.02;5.22;;;;;;;17.00;81.53;102502.06;5069172;28;20024;-67
2022/08/08 07:15:40;;;;;;;6.75;4.32;;;;;;;17.08;80.15;102508.13;5069061;28;20108;-68
2022/08/08 07:18:08;;;;;;;8.63;4.88;;;;;;;17.15;79.66;102500.06;5069077;28;20138;-69
2022/08/08 07:20:38;;;;;;;9.98;5.53;;;;;;;17.22;78.90;102505.50;5069036;28;20020;-67
2022/08/08 07:23:16;;;;;;;9.32;4.95;;;;;;;17.30;79.43;102510.72;5067730;28;20023;-67
2022/08/08 07:25:45;;;;;;;9.70;5.32;;;;;;;17.40;78.74;102513.88;5069196;28;20021;-67
2022/08/08 07:28:12;;;;;;;8.23;4.18;;;;;;;17.45;77.70;102511.41;5068643;28;20043;-67
2022/08/08 07:30:39;;;;;;;8.38;4.65;;;;;;;17.49;77.55;102517.22;5068332;28;20025;-67
2022/08/08 07:33:10;;;;;;;10.50;4.20;;;;;;;17.52;78.66;102508.72;5067389;28;20050;-68
2022/08/08 07:35:36;;;;;;;12.65;5.13;;;;;;;17.61;78.77;102512.91;5069270;28;20378;-68
2022/08/08 07:38:02;;;;;;;10.35;4.40;;;;;;;17.74;78.63;102509.44;5067647;28;20039;-68
2022/08/08 07:40:28;;;;;;;8.45;4.13;;;;;;;17.82;76.21;102511.97;5068841;28;20111;-68
2022/08/08 07:42:55;;;;;;;7.78;4.15;;;;;;;17.85;77.14;102511.56;5067610;28;20096;-66
2022/08/08 07:45:20;;;;;;;8.02;3.75;;;;;;;17.93;75.43;102507.84;5068859;28;20410;-66
2022/08/08 07:47:46;;;;;;;10.95;3.75;;;;;;;17.94;74.60;102515.72;5070668;28;20025;-67
2022/08/08 07:50:12;;;;;;;8.57;3.50;;;;;;;18.02;74.89;102516.56;5073089;28;20039;-66
2022/08/08 07:52:45;;;;;;;8.75;4.10;;;;;;;18.10;74.78;102522.63;5072375;28;20033;-66
2022/08/08 07:55:31;;;;;;;12.02;3.10;;;;;;;18.18;74.03;102525.13;5072606;28;20090;-66
2022/08/08 07:58:21;;;;;;;4.47;2.88;;;;;;;18.23;74.37;102527.16;5067677;28;20044;-66
2022/08/08 08:00:50;;;;;;;5.47;2.88;;;;;;;18.26;73.70;102517.81;5068550;28;20021;-66
2022/08/08 08:03:32;;;;;;;5.45;3.00;;;;;;;18.33;73.20;102530.28;5068803;28;20024;-66
2022/08/08 08:05:58;;;;;;;;;;;;;;;18.42;74.63;102525.53;5068998;28;20020;-67
2022/08/08 08:08:55;;;;;;;8.63;3.03;;;;;;;18.58;73.15;102530.53;5067760;28;19920;-66
2022/08/08 08:11:22;;;;;;;5.72;2.83;;;;;;;19.04;71.86;102539.63;5055847;28;20487;-67
2022/08/08 08:14:01;;;;;;;5.05;2.85;;;;;;;20.11;68.38;102531.88;5072398;28;20035;-67
2022/08/08 08:16:34;;;;;;;7.03;3.92;;;;;;;21.81;62.94;102527.81;5072595;28;20024;-66
2022/08/08 08:19:11;;;;;;;4.13;2.45;;;;;;;23.55;58.75;102530.00;5072388;28;20471;-68
2022/08/08 08:21:41;;;;;;;5.88;2.47;;;;;;;24.88;52.55;102526.75;5072440;28;20967;-68
2022/08/08 08:24:07;;;;;;;6.82;2.55;;;;;;;25.85;47.23;102520.81;5072552;28;20036;-68
2022/08/08 08:26:32;;;;;;;3.25;1.80;;;;;;;26.75;45.51;102529.19;5072365;28;20029;-67
2022/08/08 08:28:58;;;;;;;2.83;1.90;;;;;;;26.94;43.45;102535.06;5072078;28;20452;-68
2022/08/08 08:31:24;;;;;;;2.90;1.98;;;;;;;27.49;40.98;102531.72;5071593;28;20593;-68
2022/08/08 08:33:50;;;;;;;3.53;1.80;;;;;;;28.00;38.81;102544.72;5072059;28;20052;-67
2022/08/08 08:36:17;;;;;;;3.70;2.33;;;;;;;28.25;39.59;102534.88;5072282;28;20587;-68
2022/08/08 08:38:43;;;;;;;7.78;2.40;;;;;;;28.35;39.27;102540.34;5072026;28;20020;-68
2022/08/08 08:41:13;;;;;;;5.72;2.22;;;;;;;28.56;38.65;102535.69;5072160;28;20480;-69
2022/08/08 08:43:39;;;;;;;2.65;1.77;;;;;;;28.78;37.19;102535.34;5072004;28;20035;-68
2022/08/08 08:46:09;;;;;;;5.45;2.40;;;;;;;28.57;38.02;102535.38;5072377;28;20036;-68
2022/08/08 08:48:35;;;;;;;2.38;1.98;;;;;;;28.67;38.03;102545.53;5072113;28;20158;-68
2022/08/08 08:51:02;;;;;;;2.92;1.60;;;;;;;28.84;36.97;102539.72;5071947;28;20029;-68
2022/08/08 08:53:33;;;;;;;1.83;1.63;;;;;;;29.14;37.52;102547.06;5071866;28;20063;-68
2022/08/08 08:55:58;;;;;;;2.88;1.98;;;;;;;29.28;34.96;102547.25;5071835;28;20162;-68
2022/08/08 08:58:34;;;;;;;4.70;1.48;;;;;;;28.20;40.63;102552.16;5071263;28;20707;-68
2022/08/08 09:01:00;;;;;;;4.88;1.67;;;;;;;26.49;41.80;102534.50;5071518;28;20029;-68
2022/08/08 09:03:28;;;;;;;2.83;1.92;;;;;;;25.04;44.54;102537.88;5071887;28;20048;-68
2022/08/08 09:05:55;;;;;;;4.88;1.85;;;;;;;23.94;47.59;102546.50;5071727;28;20494;-68
2022/08/08 09:08:26;;;;;;;5.35;2.30;;;;;;;23.22;48.04;102549.72;5071753;28;20025;-68
2022/08/08 09:10:52;;;;;;;4.53;2.40;;;;;;;22.52;49.33;102545.13;5071385;28;20039;-68
2022/08/08 09:13:20;;;;;;;4.03;1.80;;;;;;;22.19;52.61;102541.09;5071359;28;20100;-68
2022/08/08 09:15:45;;;;;;;2.75;1.70;;;;;;;22.08;53.55;102541.84;5071297;28;20495;-65
2022/08/08 09:18:12;;;;;;;4.00;2.67;;;;;;;21.89;53.29;102538.34;5071400;28;20035;-66
2022/08/08 09:20:37;;;;;;;6.45;2.22;;;;;;;21.74;54.02;102527.91;5071242;28;20534;-65
2022/08/08 09:23:03;;;;;;;4.30;2.22;;;;;;;21.66;54.75;102533.66;5071318;28;20029;-66
2022/08/08 09:25:29;;;;;;;4.47;1.90;;;;;;;21.68;55.00;102536.97;5071256;28;20490;-65
2022/08/08 09:27:56;;;;;;;3.13;1.70;;;;;;;21.64;57.79;102531.19;5071102;28;20044;-65
2022/08/08 09:30:23;;;;;;;4.43;1.88;;;;;;;21.75;57.21;102537.72;5071205;28;20036;-65
2022/08/08 09:32:51;;;;;;;5.28;2.50;;;;;;;21.73;57.19;102531.69;5071158;28;20579;-66
2022/08/08 09:35:21;;;;;;;3.28;1.65;;;;;;;21.79;57.81;102532.66;5070891;28;20056;-66
2022/08/08 09:37:53;;;;;;;4.63;2.00;;;;;;;21.69;56.14;102538.63;5071145;28;20020;-67
2022/08/08 09:40:21;;;;;;;5.18;1.65;;;;;;;21.56;55.47;102542.38;5070963;28;20025;-66
2022/08/08 09:42:49;;;;;;;2.92;1.73;;;;;;;21.56;57.04;102526.09;5070880;28;20027;-66
2022/08/08 09:45:20;;;;;;;6.20;2.17;;;;;;;21.64;58.38;102536.63;5070809;28;20040;-66
2022/08/08 09:47:46;;;;;;;3.45;2.35;;;;;;;21.77;56.58;102532.03;5070878;28;20357;-67
2022/08/08 09:50:15;;;;;;;5.05;1.88;;;;;;;21.65;58.26;102527.41;5070704;28;20024;-66
2022/08/08 09:52:51;;;;;;;3.33;1.65;;;;;;;21.82;56.97;102524.88;5070586;28;20028;-66
2022/08/08 09:55:18;;;;;;;2.35;1.90;;;;;;;21.98;56.62;102534.25;5070666;28;20118;-66
2022/08/08 09:58:07;;;;;;;2.35;1.85;;;;;;;21.98;55.34;102528.84;5070636;28;20126;-67
2022/08/08 10:00:36;;;;;;;3.15;1.50;;;;;;;21.79;55.19;102522.59;5070431;28;20460;-66
2022/08/08 10:03:03;;;;;;;5.25;2.30;;;;;;;21.91;54.03;102538.13;5069158;28;20111;-66
2022/08/08 10:05:36;;;;;;;4.13;1.65;;;;;;;22.06;54.41;102539.38;5070443;28;20058;-66
2022/08/08 10:08:03;;;;;;;2.08;1.40;;;;;;;22.08;54.54;102534.50;5070532;28;20039;-66
2022/08/08 10:10:36;;;;;;;4.35;2.35;;;;;;;22.20;52.50;102540.00;5069612;28;20364;-67
2022/08/08 10:13:30;;;;;;;2.70;1.60;;;;;;;22.37;54.21;102533.88;5068982;28;20025;-66
2022/08/08 10:16:00;;;;;;;3.50;2.33;;;;;;;22.38;52.26;102532.84;5069706;28;20109;-67
2022/08/08 10:18:28;;;;;;;1.45;1.35;;;;;;;22.23;53.14;102536.81;5070147;28;20060;-66
2022/08/08 10:21:00;;;;;;;3.65;1.58;;;;;;;21.99;54.72;102530.47;5070011;28;20032;-66
2022/08/08 10:23:41;;;;;;;4.50;1.95;;;;;;;21.81;55.87;102539.50;5070136;28;20028;-66
2022/08/08 10:26:14;;;;;;;3.28;1.40;;;;;;;21.64;56.55;102523.03;5070163;28;20029;-66
2022/08/08 10:28:56;;;;;;;3.38;2.03;;;;;;;21.67;55.05;102538.06;5070273;28;20031;-66
2022/08/08 10:34:14;;;;;;;1.92;1.73;;;;;;;21.74;56.20;102530.63;5069906;28;20072;-67
2022/08/08 10:36:41;;;;;;;2.80;1.50;;;;;;;21.81;57.98;102534.06;5069832;28;20032;-66
2022/08/08 10:39:09;;;;;;;3.60;1.42;;;;;;;21.72;55.52;102519.19;5069786;28;20115;-66
2022/08/08 10:41:36;;;;;;;4.93;1.95;;;;;;;21.93;54.83;102519.69;5069810;28;20024;-66
2022/08/08 10:44:02;;;;;;;3.30;2.13;;;;;;;22.49;56.06;102532.84;5069738;28;20033;-67
2022/08/08 10:46:30;;;;;;;2.13;1.30;;;;;;;22.73;55.02;102527.41;5069503;28;20065;-67
2022/08/08 10:48:56;;;;;;;1.60;1.50;;;;;;;22.58;53.38;102521.59;5069707;28;20020;-66
2022/08/08 10:51:25;;;;;;;2.53;1.63;;;;;;;22.38;52.92;102532.84;5069761;28;20058;-66
2022/08/08 10:53:54;;;;;;;2.35;1.90;;;;;;;22.20;53.08;102537.28;5069669;28;20021;-67
2022/08/08 10:56:22;;;;;;;1.95;1.75;;;;;;;22.21;53.29;102525.34;5069505;28;20028;-67
2022/08/08 10:58:58;;;;;;;3.60;1.77;;;;;;;22.25;54.07;102525.72;5069267;28;20063;-67
2022/08/08 11:01:28;;;;;;;2.85;2.03;;;;;;;22.34;54.36;102526.19;5069424;28;20028;-67
2022/08/08 11:03:59;;;;;;;3.53;1.40;;;;;;;22.52;55.03;102526.91;5069321;28;20028;-67
2022/08/08 11:06:33;;;;;;;4.30;1.85;;;;;;;22.69;53.42;102528.94;5069373;28;20972;-67
2022/08/08 11:09:06;;;;;;;7.43;2.33;;;;;;;22.57;53.75;102518.06;5069338;28;20020;-67
2022/08/08 11:11:42;;;;;;;3.42;1.77;;;;;;;22.44;53.54;102526.44;5068517;28;20036;-67
2022/08/08 11:14:10;;;;;;;1.67;1.33;;;;;;;22.38;53.81;102513.81;5068743;28;20057;-67
2022/08/08 11:16:38;;;;;;;3.65;1.65;;;;;;;22.43;53.52;102522.09;5069203;28;20020;-67
2022/08/08 11:19:04;;;;;;;1.63;1.48;;;;;;;22.50;53.28;102514.63;5069300;28;20033;-67
2022/08/08 11:21:39;;;;;;;2.72;1.63;;;;;;;22.72;51.86;102518.41;5069066;28;20063;-67
2022/08/08 11:24:10;;;;;;;3.58;1.50;;;;;;;22.97;50.19;102514.63;5069293;28;20025;-66
2022/08/08 11:26:39;;;;;;;3.28;1.50;;;;;;;23.22;50.96;102508.06;5069201;28;20033;-66
2022/08/08 11:29:06;;;;;;;1.63;1.50;;;;;;;23.40;50.04;102511.44;5069082;28;20499;-66
2022/08/08 11:31:38;;;;;;;1.50;1.40;;;;;;;23.25;48.47;102510.31;5069187;28;20027;-66
2022/08/08 11:34:05;;;;;;;3.03;1.52;;;;;;;22.91;50.08;102505.50;5068948;28;20056;-66
2022/08/08 11:36:32;;;;;;;1.98;1.48;;;;;;;22.72;52.24;102507.53;5069169;28;20057;-66
2022/08/08 11:38:58;;;;;;;5.57;1.50;;;;;;;22.58;50.75;102505.28;5069053;28;20776;-66
2022/08/08 11:41:25;;;;;;;2.67;1.42;;;;;;;22.56;50.37;102488.38;5068918;28;20028;-66
2022/08/08 11:43:53;;;;;;;4.03;1.85;;;;;;;22.91;49.50;102485.63;5069045;28;20029;-66
2022/08/08 11:46:20;;;;;;;2.85;1.30;;;;;;;23.06;49.40;102499.59;5069011;28;20151;-66
2022/08/08 11:48:47;;;;;;;2.08;1.27;;;;;;;22.74;47.51;102499.97;5069047;28;20032;-66
2022/08/08 11:51:15;;;;;;;2.50;1.30;;;;;;;22.52;49.16;102490.75;5069028;28;20065;-66
2022/08/08 11:53:41;;;;;;;4.65;1.63;;;;;;;22.67;48.92;102491.09;5068830;28;20025;-66
2022/08/08 11:56:17;;;;;;;4.32;1.35;;;;;;;22.83;48.70;102492.25;5068965;28;20036;-66